sensor_id;sensor_type;location;lat;lon;timestamp;P1;durP1;ratioP1;P2;durP2;ratioP2
41661;SDS011;27351;45.992;12.666;2023-03-23T00:02:14;38.10;;;26.83;;
41661;SDS011;27351;45.992;12.666;2023-03-23T00:04:39;35.95;;;26.65;;
41661;SDS011;27351;45.992;12.666;2023-03-23T00:07:05;38.20;;;27.90;;
41661;SDS011;27351;45.992;12.666;2023-03-23T00:09:30;41.40;;;28.10;;
41661;SDS011;27351;45.992;12.666;2023-03-23T00:12:00;38.85;;;28.10;;
41661;SDS011;27351;45.992;12.666;2023-03-23T00:14:39;39.50;;;27.85;;
41661;SDS011;27351;45.992;12.666;2023-03-23T00:17:08;38.33;;;28.05;;
41661;SDS011;27351;45.992;12.666;2023-03-23T00:19:36;39.88;;;28.52;;
41661;SDS011;27351;45.992;12.666;2023-03-23T00:22:14;38.17;;;28.23;;
41661;SDS011;27351;45.992;12.666;2023-03-23T00:24:48;37.97;;;26.95;;
41661;SDS011;27351;45.992;12.666;2023-03-23T00:27:16;34.85;;;26.30;;
41661;SDS011;27351;45.992;12.666;2023-03-23T00:29:41;40.45;;;28.20;;
41661;SDS011;27351;45.992;12.666;2023-03-23T00:32:07;41.43;;;29.60;;
41661;SDS011;27351;45.992;12.666;2023-03-23T00:34:38;39.95;;;27.55;;
41661;SDS011;27351;45.992;12.666;2023-03-23T00:37:03;40.50;;;28.20;;
41661;SDS011;27351;45.992;12.666;2023-03-23T00:39:29;37.37;;;27.23;;
41661;SDS011;27351;45.992;12.666;2023-03-23T00:41:55;39.47;;;27.77;;
41661;SDS011;27351;45.992;12.666;2023-03-23T00:44:26;38.37;;;27.77;;
41661;SDS011;27351;45.992;12.666;2023-03-23T00:46:53;36.77;;;27.63;;
41661;SDS011;27351;45.992;12.666;2023-03-23T00:49:21;39.20;;;27.27;;
41661;SDS011;27351;45.992;12.666;2023-03-23T00:51:51;38.13;;;26.80;;
41661;SDS011;27351;45.992;12.666;2023-03-23T00:54:17;37.50;;;27.17;;
41661;SDS011;27351;45.992;12.666;2023-03-23T00:56:42;37.53;;;26.20;;
41661;SDS011;27351;45.992;12.666;2023-03-23T00:59:08;38.07;;;27.73;;
41661;SDS011;27351;45.992;12.666;2023-03-23T01:01:34;38.53;;;27.60;;
41661;SDS011;27351;45.992;12.666;2023-03-23T01:04:00;37.38;;;27.35;;
41661;SDS011;27351;45.992;12.666;2023-03-23T01:06:29;36.15;;;28.13;;
41661;SDS011;27351;45.992;12.666;2023-03-23T01:08:58;40.28;;;28.05;;
41661;SDS011;27351;45.992;12.666;2023-03-23T01:11:24;41.05;;;29.80;;
41661;SDS011;27351;45.992;12.666;2023-03-23T01:13:50;37.83;;;27.17;;
41661;SDS011;27351;45.992;12.666;2023-03-23T01:16:16;39.30;;;28.25;;
41661;SDS011;27351;45.992;12.666;2023-03-23T01:18:41;38.70;;;27.70;;
41661;SDS011;27351;45.992;12.666;2023-03-23T01:21:11;41.27;;;29.43;;
41661;SDS011;27351;45.992;12.666;2023-03-23T01:23:37;39.97;;;29.13;;
41661;SDS011;27351;45.992;12.666;2023-03-23T01:26:06;38.90;;;28.15;;
41661;SDS011;27351;45.992;12.666;2023-03-23T01:28:33;37.83;;;26.90;;
41661;SDS011;27351;45.992;12.666;2023-03-23T01:30:59;37.03;;;27.42;;
41661;SDS011;27351;45.992;12.666;2023-03-23T01:33:25;39.08;;;29.55;;
41661;SDS011;27351;45.992;12.666;2023-03-23T01:35:50;40.33;;;28.75;;
41661;SDS011;27351;45.992;12.666;2023-03-23T01:38:17;40.08;;;27.80;;
41661;SDS011;27351;45.992;12.666;2023-03-23T01:40:43;37.90;;;27.38;;
41661;SDS011;27351;45.992;12.666;2023-03-23T01:43:12;37.55;;;26.98;;
41661;SDS011;27351;45.992;12.666;2023-03-23T01:45:39;37.75;;;26.40;;
41661;SDS011;27351;45.992;12.666;2023-03-23T01:48:09;42.53;;;28.50;;
41661;SDS011;27351;45.992;12.666;2023-03-23T01:51:18;40.15;;;29.13;;
41661;SDS011;27351;45.992;12.666;2023-03-23T01:53:28;38.90;;;28.10;;
41661;SDS011;27351;45.992;12.666;2023-03-23T01:56:02;38.92;;;27.90;;
41661;SDS011;27351;45.992;12.666;2023-03-23T01:58:29;41.75;;;29.30;;
41661;SDS011;27351;45.992;12.666;2023-03-23T02:00:57;42.03;;;29.57;;
41661;SDS011;27351;45.992;12.666;2023-03-23T02:03:27;42.58;;;29.10;;
41661;SDS011;27351;45.992;12.666;2023-03-23T02:05:53;41.25;;;28.77;;
41661;SDS011;27351;45.992;12.666;2023-03-23T02:08:27;39.47;;;28.83;;
41661;SDS011;27351;45.992;12.666;2023-03-23T02:10:54;39.22;;;28.33;;
41661;SDS011;27351;45.992;12.666;2023-03-23T02:13:20;41.85;;;29.30;;
41661;SDS011;27351;45.992;12.666;2023-03-23T02:18:24;38.45;;;27.92;;
41661;SDS011;27351;45.992;12.666;2023-03-23T02:26:47;38.33;;;28.85;;
41661;SDS011;27351;45.992;12.666;2023-03-23T02:34:30;41.55;;;28.83;;
41661;SDS011;27351;45.992;12.666;2023-03-23T02:37:01;40.45;;;29.65;;
41661;SDS011;27351;45.992;12.666;2023-03-23T02:39:29;39.08;;;28.85;;
41661;SDS011;27351;45.992;12.666;2023-03-23T02:41:57;42.60;;;29.50;;
41661;SDS011;27351;45.992;12.666;2023-03-23T02:44:24;43.72;;;30.15;;
41661;SDS011;27351;45.992;12.666;2023-03-23T02:46:56;43.73;;;28.90;;
41661;SDS011;27351;45.992;12.666;2023-03-23T02:49:22;41.27;;;28.77;;
41661;SDS011;27351;45.992;12.666;2023-03-23T02:51:48;39.08;;;27.85;;
41661;SDS011;27351;45.992;12.666;2023-03-23T02:54:15;42.83;;;28.90;;
41661;SDS011;27351;45.992;12.666;2023-03-23T02:56:42;42.13;;;29.38;;
41661;SDS011;27351;45.992;12.666;2023-03-23T02:59:16;43.47;;;29.77;;
41661;SDS011;27351;45.992;12.666;2023-03-23T03:04:17;44.08;;;29.67;;
41661;SDS011;27351;45.992;12.666;2023-03-23T03:09:41;42.00;;;30.07;;
41661;SDS011;27351;45.992;12.666;2023-03-23T03:12:13;42.85;;;30.55;;
41661;SDS011;27351;45.992;12.666;2023-03-23T03:18:17;42.00;;;30.15;;
41661;SDS011;27351;45.992;12.666;2023-03-23T03:20:45;46.72;;;30.67;;
41661;SDS011;27351;45.992;12.666;2023-03-23T03:23:14;44.70;;;31.17;;
41661;SDS011;27351;45.992;12.666;2023-03-23T03:25:43;44.72;;;29.95;;
41661;SDS011;27351;45.992;12.666;2023-03-23T03:28:17;45.03;;;29.73;;
41661;SDS011;27351;45.992;12.666;2023-03-23T03:30:47;42.78;;;30.13;;
41661;SDS011;27351;45.992;12.666;2023-03-23T03:33:15;47.72;;;31.45;;
41661;SDS011;27351;45.992;12.666;2023-03-23T03:35:43;41.53;;;29.10;;
41661;SDS011;27351;45.992;12.666;2023-03-23T03:38:10;43.15;;;30.05;;
41661;SDS011;27351;45.992;12.666;2023-03-23T03:40:36;42.55;;;28.90;;
41661;SDS011;27351;45.992;12.666;2023-03-23T03:43:02;47.38;;;29.23;;
41661;SDS011;27351;45.992;12.666;2023-03-23T03:45:28;39.97;;;28.13;;
41661;SDS011;27351;45.992;12.666;2023-03-23T03:47:54;43.57;;;30.13;;
41661;SDS011;27351;45.992;12.666;2023-03-23T03:50:21;39.38;;;28.20;;
41661;SDS011;27351;45.992;12.666;2023-03-23T03:52:46;43.87;;;29.97;;
41661;SDS011;27351;45.992;12.666;2023-03-23T03:55:12;42.13;;;28.90;;
41661;SDS011;27351;45.992;12.666;2023-03-23T03:57:41;37.35;;;26.52;;
41661;SDS011;27351;45.992;12.666;2023-03-23T04:00:36;37.08;;;26.73;;
41661;SDS011;27351;45.992;12.666;2023-03-23T04:03:01;42.58;;;28.75;;
41661;SDS011;27351;45.992;12.666;2023-03-23T04:05:41;42.65;;;29.27;;
41661;SDS011;27351;45.992;12.666;2023-03-23T04:08:07;44.00;;;29.73;;
41661;SDS011;27351;45.992;12.666;2023-03-23T04:10:33;40.83;;;27.63;;
41661;SDS011;27351;45.992;12.666;2023-03-23T04:12:59;40.33;;;28.37;;
41661;SDS011;27351;45.992;12.666;2023-03-23T04:15:34;40.38;;;27.80;;
41661;SDS011;27351;45.992;12.666;2023-03-23T04:18:00;44.87;;;28.87;;
41661;SDS011;27351;45.992;12.666;2023-03-23T04:20:26;42.03;;;29.20;;
41661;SDS011;27351;45.992;12.666;2023-03-23T04:22:52;44.88;;;31.45;;
41661;SDS011;27351;45.992;12.666;2023-03-23T04:25:22;36.70;;;26.52;;
41661;SDS011;27351;45.992;12.666;2023-03-23T04:27:50;38.50;;;26.58;;
41661;SDS011;27351;45.992;12.666;2023-03-23T04:30:22;39.33;;;27.80;;
41661;SDS011;27351;45.992;12.666;2023-03-23T04:33:09;43.75;;;29.15;;
41661;SDS011;27351;45.992;12.666;2023-03-23T04:35:41;42.20;;;29.00;;
41661;SDS011;27351;45.992;12.666;2023-03-23T04:38:22;41.20;;;28.83;;
41661;SDS011;27351;45.992;12.666;2023-03-23T04:40:53;42.33;;;28.98;;
41661;SDS011;27351;45.992;12.666;2023-03-23T04:43:46;42.17;;;27.48;;
41661;SDS011;27351;45.992;12.666;2023-03-23T04:46:21;46.22;;;31.00;;
41661;SDS011;27351;45.992;12.666;2023-03-23T04:48:49;44.97;;;30.43;;
41661;SDS011;27351;45.992;12.666;2023-03-23T04:51:19;42.20;;;28.35;;
41661;SDS011;27351;45.992;12.666;2023-03-23T04:53:49;50.22;;;31.95;;
41661;SDS011;27351;45.992;12.666;2023-03-23T04:56:15;45.10;;;30.42;;
41661;SDS011;27351;45.992;12.666;2023-03-23T04:58:43;50.38;;;31.35;;
41661;SDS011;27351;45.992;12.666;2023-03-23T05:01:22;46.47;;;31.25;;
41661;SDS011;27351;45.992;12.666;2023-03-23T05:03:58;44.53;;;29.45;;
41661;SDS011;27351;45.992;12.666;2023-03-23T05:06:25;42.10;;;29.77;;
41661;SDS011;27351;45.992;12.666;2023-03-23T05:08:57;48.25;;;32.05;;
41661;SDS011;27351;45.992;12.666;2023-03-23T05:11:22;41.57;;;28.67;;
41661;SDS011;27351;45.992;12.666;2023-03-23T05:13:49;38.58;;;26.50;;
41661;SDS011;27351;45.992;12.666;2023-03-23T05:16:16;40.88;;;26.70;;
41661;SDS011;27351;45.992;12.666;2023-03-23T05:18:42;38.63;;;26.50;;
41661;SDS011;27351;45.992;12.666;2023-03-23T05:21:11;39.65;;;27.08;;
41661;SDS011;27351;45.992;12.666;2023-03-23T05:23:40;43.30;;;27.92;;
41661;SDS011;27351;45.992;12.666;2023-03-23T05:26:15;41.35;;;28.27;;
41661;SDS011;27351;45.992;12.666;2023-03-23T05:28:41;38.63;;;26.30;;
41661;SDS011;27351;45.992;12.666;2023-03-23T05:31:18;38.85;;;26.65;;
41661;SDS011;27351;45.992;12.666;2023-03-23T05:33:44;43.10;;;28.95;;
41661;SDS011;27351;45.992;12.666;2023-03-23T05:36:33;45.92;;;31.45;;
41661;SDS011;27351;45.992;12.666;2023-03-23T05:39:25;43.05;;;29.23;;
41661;SDS011;27351;45.992;12.666;2023-03-23T05:42:21;40.63;;;28.63;;
41661;SDS011;27351;45.992;12.666;2023-03-23T05:44:58;44.15;;;29.00;;
41661;SDS011;27351;45.992;12.666;2023-03-23T05:47:24;47.60;;;31.10;;
41661;SDS011;27351;45.992;12.666;2023-03-23T05:49:55;49.67;;;31.10;;
41661;SDS011;27351;45.992;12.666;2023-03-23T05:52:23;46.22;;;30.48;;
41661;SDS011;27351;45.992;12.666;2023-03-23T05:54:52;48.13;;;32.05;;
41661;SDS011;27351;45.992;12.666;2023-03-23T05:57:20;47.22;;;31.17;;
41661;SDS011;27351;45.992;12.666;2023-03-23T05:59:55;42.92;;;29.27;;
41661;SDS011;27351;45.992;12.666;2023-03-23T06:02:24;46.90;;;30.38;;
41661;SDS011;27351;45.992;12.666;2023-03-23T06:04:52;47.47;;;30.80;;
41661;SDS011;27351;45.992;12.666;2023-03-23T06:07:28;42.30;;;30.50;;
41661;SDS011;27351;45.992;12.666;2023-03-23T06:10:01;44.92;;;31.80;;
41661;SDS011;27351;45.992;12.666;2023-03-23T06:12:37;47.35;;;30.75;;
41661;SDS011;27351;45.992;12.666;2023-03-23T06:15:04;48.20;;;31.58;;
41661;SDS011;27351;45.992;12.666;2023-03-23T06:17:50;43.83;;;31.23;;
41661;SDS011;27351;45.992;12.666;2023-03-23T06:20:23;47.83;;;30.00;;
41661;SDS011;27351;45.992;12.666;2023-03-23T06:22:51;45.88;;;29.63;;
41661;SDS011;27351;45.992;12.666;2023-03-23T06:25:29;43.40;;;29.90;;
41661;SDS011;27351;45.992;12.666;2023-03-23T06:27:56;43.13;;;30.83;;
41661;SDS011;27351;45.992;12.666;2023-03-23T06:30:23;39.50;;;28.60;;
41661;SDS011;27351;45.992;12.666;2023-03-23T06:32:49;43.00;;;30.20;;
41661;SDS011;27351;45.992;12.666;2023-03-23T06:35:24;41.97;;;30.00;;
41661;SDS011;27351;45.992;12.666;2023-03-23T06:38:11;41.70;;;28.75;;
41661;SDS011;27351;45.992;12.666;2023-03-23T06:41:04;42.17;;;29.30;;
41661;SDS011;27351;45.992;12.666;2023-03-23T06:43:31;42.85;;;29.67;;
41661;SDS011;27351;45.992;12.666;2023-03-23T06:46:26;46.13;;;30.23;;
41661;SDS011;27351;45.992;12.666;2023-03-23T06:48:55;38.17;;;28.00;;
41661;SDS011;27351;45.992;12.666;2023-03-23T06:51:29;44.97;;;29.67;;
41661;SDS011;27351;45.992;12.666;2023-03-23T06:53:55;42.47;;;27.87;;
41661;SDS011;27351;45.992;12.666;2023-03-23T06:56:23;50.10;;;30.17;;
41661;SDS011;27351;45.992;12.666;2023-03-23T06:58:49;42.90;;;29.38;;
41661;SDS011;27351;45.992;12.666;2023-03-23T07:01:16;44.80;;;29.63;;
41661;SDS011;27351;45.992;12.666;2023-03-23T07:03:50;45.95;;;29.92;;
41661;SDS011;27351;45.992;12.666;2023-03-23T07:06:23;44.50;;;29.30;;
41661;SDS011;27351;45.992;12.666;2023-03-23T07:08:55;42.55;;;27.52;;
41661;SDS011;27351;45.992;12.666;2023-03-23T07:11:23;40.75;;;27.98;;
41661;SDS011;27351;45.992;12.666;2023-03-23T07:13:50;40.53;;;28.03;;
41661;SDS011;27351;45.992;12.666;2023-03-23T07:16:17;39.13;;;27.50;;
41661;SDS011;27351;45.992;12.666;2023-03-23T07:18:44;39.60;;;27.30;;
41661;SDS011;27351;45.992;12.666;2023-03-23T07:21:10;40.28;;;27.67;;
41661;SDS011;27351;45.992;12.666;2023-03-23T07:23:39;38.63;;;27.60;;
41661;SDS011;27351;45.992;12.666;2023-03-23T07:26:09;39.97;;;25.90;;
41661;SDS011;27351;45.992;12.666;2023-03-23T07:28:38;45.38;;;28.10;;
41661;SDS011;27351;45.992;12.666;2023-03-23T07:31:31;38.42;;;25.90;;
41661;SDS011;27351;45.992;12.666;2023-03-23T07:33:57;38.45;;;27.10;;
41661;SDS011;27351;45.992;12.666;2023-03-23T07:36:31;40.25;;;26.85;;
41661;SDS011;27351;45.992;12.666;2023-03-23T07:38:57;37.50;;;25.98;;
41661;SDS011;27351;45.992;12.666;2023-03-23T07:41:23;39.20;;;26.98;;
41661;SDS011;27351;45.992;12.666;2023-03-23T07:43:51;43.25;;;27.10;;
41661;SDS011;27351;45.992;12.666;2023-03-23T07:46:31;38.97;;;27.23;;
41661;SDS011;27351;45.992;12.666;2023-03-23T07:49:07;40.65;;;27.25;;
41661;SDS011;27351;45.992;12.666;2023-03-23T07:51:40;37.40;;;26.75;;
41661;SDS011;27351;45.992;12.666;2023-03-23T07:54:07;37.00;;;26.75;;
41661;SDS011;27351;45.992;12.666;2023-03-23T07:56:47;35.22;;;24.80;;
41661;SDS011;27351;45.992;12.666;2023-03-23T07:59:20;36.05;;;25.75;;
41661;SDS011;27351;45.992;12.666;2023-03-23T08:01:45;36.05;;;25.25;;
41661;SDS011;27351;45.992;12.666;2023-03-23T08:04:29;37.00;;;26.55;;
41661;SDS011;27351;45.992;12.666;2023-03-23T08:07:24;37.28;;;26.10;;
41661;SDS011;27351;45.992;12.666;2023-03-23T08:10:03;37.30;;;26.65;;
41661;SDS011;27351;45.992;12.666;2023-03-23T08:12:44;38.42;;;25.70;;
41661;SDS011;27351;45.992;12.666;2023-03-23T08:15:36;37.38;;;26.25;;
41661;SDS011;27351;45.992;12.666;2023-03-23T08:18:12;36.75;;;25.67;;
41661;SDS011;27351;45.992;12.666;2023-03-23T08:21:04;34.47;;;23.50;;
41661;SDS011;27351;45.992;12.666;2023-03-23T08:23:46;34.65;;;24.52;;
41661;SDS011;27351;45.992;12.666;2023-03-23T08:26:11;34.23;;;24.10;;
41661;SDS011;27351;45.992;12.666;2023-03-23T08:29:06;32.92;;;22.70;;
41661;SDS011;27351;45.992;12.666;2023-03-23T08:31:50;31.55;;;21.60;;
41661;SDS011;27351;45.992;12.666;2023-03-23T08:34:25;31.05;;;21.88;;
41661;SDS011;27351;45.992;12.666;2023-03-23T08:37:11;31.60;;;20.58;;
41661;SDS011;27351;45.992;12.666;2023-03-23T08:39:57;32.33;;;21.90;;
41661;SDS011;27351;45.992;12.666;2023-03-23T08:42:38;31.17;;;22.02;;
41661;SDS011;27351;45.992;12.666;2023-03-23T08:45:07;31.85;;;21.42;;
41661;SDS011;27351;45.992;12.666;2023-03-23T08:47:52;31.27;;;21.08;;
41661;SDS011;27351;45.992;12.666;2023-03-23T08:50:35;32.05;;;21.98;;
41661;SDS011;27351;45.992;12.666;2023-03-23T08:53:33;29.45;;;21.70;;
41661;SDS011;27351;45.992;12.666;2023-03-23T08:56:17;29.50;;;21.17;;
41661;SDS011;27351;45.992;12.666;2023-03-23T08:59:01;28.38;;;19.88;;
41661;SDS011;27351;45.992;12.666;2023-03-23T09:01:50;31.15;;;21.17;;
41661;SDS011;27351;45.992;12.666;2023-03-23T09:04:29;31.52;;;22.65;;
41661;SDS011;27351;45.992;12.666;2023-03-23T09:07:15;33.50;;;22.85;;
41661;SDS011;27351;45.992;12.666;2023-03-23T09:09:41;32.60;;;22.60;;
41661;SDS011;27351;45.992;12.666;2023-03-23T09:12:07;33.60;;;21.88;;
41661;SDS011;27351;45.992;12.666;2023-03-23T09:14:34;34.72;;;22.83;;
41661;SDS011;27351;45.992;12.666;2023-03-23T09:17:00;34.53;;;22.80;;
41661;SDS011;27351;45.992;12.666;2023-03-23T09:19:26;30.40;;;21.88;;
41661;SDS011;27351;45.992;12.666;2023-03-23T09:21:51;33.03;;;22.40;;
41661;SDS011;27351;45.992;12.666;2023-03-23T09:24:17;31.50;;;22.97;;
41661;SDS011;27351;45.992;12.666;2023-03-23T09:26:44;33.43;;;22.40;;
41661;SDS011;27351;45.992;12.666;2023-03-23T09:29:10;33.38;;;20.52;;
41661;SDS011;27351;45.992;12.666;2023-03-23T09:31:36;31.65;;;21.98;;
41661;SDS011;27351;45.992;12.666;2023-03-23T09:34:02;32.50;;;21.87;;
41661;SDS011;27351;45.992;12.666;2023-03-23T09:36:29;31.60;;;21.33;;
41661;SDS011;27351;45.992;12.666;2023-03-23T09:38:57;33.00;;;21.33;;
41661;SDS011;27351;45.992;12.666;2023-03-23T09:44:30;29.90;;;19.95;;
41661;SDS011;27351;45.992;12.666;2023-03-23T09:52:16;28.90;;;19.75;;
41661;SDS011;27351;45.992;12.666;2023-03-23T09:54:43;29.13;;;18.95;;
41661;SDS011;27351;45.992;12.666;2023-03-23T09:57:15;30.73;;;20.33;;
41661;SDS011;27351;45.992;12.666;2023-03-23T10:08:00;28.08;;;18.02;;
41661;SDS011;27351;45.992;12.666;2023-03-23T10:10:31;25.45;;;18.52;;
41661;SDS011;27351;45.992;12.666;2023-03-23T10:15:55;25.42;;;18.00;;
41661;SDS011;27351;45.992;12.666;2023-03-23T10:21:06;30.02;;;18.20;;
41661;SDS011;27351;45.992;12.666;2023-03-23T10:30:58;26.77;;;19.03;;
41661;SDS011;27351;45.992;12.666;2023-03-23T10:33:26;26.15;;;17.88;;
41661;SDS011;27351;45.992;12.666;2023-03-23T10:35:58;25.90;;;17.67;;
41661;SDS011;27351;45.992;12.666;2023-03-23T10:38:36;25.55;;;19.13;;
41661;SDS011;27351;45.992;12.666;2023-03-23T10:41:12;26.02;;;18.85;;
41661;SDS011;27351;45.992;12.666;2023-03-23T10:43:38;26.30;;;18.07;;
41661;SDS011;27351;45.992;12.666;2023-03-23T10:48:53;27.52;;;18.67;;
41661;SDS011;27351;45.992;12.666;2023-03-23T10:51:21;27.60;;;17.58;;
41661;SDS011;27351;45.992;12.666;2023-03-23T10:53:51;25.90;;;18.93;;
41661;SDS011;27351;45.992;12.666;2023-03-23T10:58:47;25.70;;;19.48;;
41661;SDS011;27351;45.992;12.666;2023-03-23T11:01:13;27.17;;;18.63;;
41661;SDS011;27351;45.992;12.666;2023-03-23T11:03:40;31.10;;;20.97;;
41661;SDS011;27351;45.992;12.666;2023-03-23T11:06:07;24.92;;;18.00;;
41661;SDS011;27351;45.992;12.666;2023-03-23T11:08:35;22.55;;;17.35;;
41661;SDS011;27351;45.992;12.666;2023-03-23T11:11:14;23.90;;;17.27;;
41661;SDS011;27351;45.992;12.666;2023-03-23T11:13:47;24.40;;;16.75;;
41661;SDS011;27351;45.992;12.666;2023-03-23T11:16:24;24.48;;;17.85;;
41661;SDS011;27351;45.992;12.666;2023-03-23T11:18:49;24.85;;;17.52;;
41661;SDS011;27351;45.992;12.666;2023-03-23T11:21:15;20.77;;;14.83;;
41661;SDS011;27351;45.992;12.666;2023-03-23T11:23:48;22.77;;;16.80;;
41661;SDS011;27351;45.992;12.666;2023-03-23T11:28:47;20.67;;;15.88;;
41661;SDS011;27351;45.992;12.666;2023-03-23T11:31:16;20.92;;;15.38;;
41661;SDS011;27351;45.992;12.666;2023-03-23T11:36:14;21.00;;;14.52;;
41661;SDS011;27351;45.992;12.666;2023-03-23T11:38:40;20.25;;;12.90;;
41661;SDS011;27351;45.992;12.666;2023-03-23T11:41:09;17.63;;;11.43;;
41661;SDS011;27351;45.992;12.666;2023-03-23T11:43:38;18.50;;;11.48;;
41661;SDS011;27351;45.992;12.666;2023-03-23T11:46:32;16.30;;;10.80;;
41661;SDS011;27351;45.992;12.666;2023-03-23T11:48:57;14.00;;;8.60;;
41661;SDS011;27351;45.992;12.666;2023-03-23T11:54:13;14.13;;;8.80;;
41661;SDS011;27351;45.992;12.666;2023-03-23T11:56:44;11.55;;;7.90;;
41661;SDS011;27351;45.992;12.666;2023-03-23T11:59:15;13.33;;;8.23;;
41661;SDS011;27351;45.992;12.666;2023-03-23T12:01:49;12.68;;;7.30;;
41661;SDS011;27351;45.992;12.666;2023-03-23T12:09:23;9.70;;;5.70;;
41661;SDS011;27351;45.992;12.666;2023-03-23T12:27:33;9.25;;;5.03;;
41661;SDS011;27351;45.992;12.666;2023-03-23T12:30:04;7.85;;;5.00;;
41661;SDS011;27351;45.992;12.666;2023-03-23T12:47:51;6.70;;;3.70;;
41661;SDS011;27351;45.992;12.666;2023-03-23T12:52:56;10.15;;;4.93;;
41661;SDS011;27351;45.992;12.666;2023-03-23T12:55:25;8.10;;;4.50;;
41661;SDS011;27351;45.992;12.666;2023-03-23T12:57:58;11.25;;;5.63;;
41661;SDS011;27351;45.992;12.666;2023-03-23T13:00:27;23.52;;;6.00;;
41661;SDS011;27351;45.992;12.666;2023-03-23T13:05:32;52.50;;;10.95;;
41661;SDS011;27351;45.992;12.666;2023-03-23T13:08:03;11.17;;;5.67;;
41661;SDS011;27351;45.992;12.666;2023-03-23T13:10:46;11.73;;;6.35;;
41661;SDS011;27351;45.992;12.666;2023-03-23T13:13:13;10.65;;;6.30;;
41661;SDS011;27351;45.992;12.666;2023-03-23T13:18:19;9.38;;;6.10;;
41661;SDS011;27351;45.992;12.666;2023-03-23T13:23:25;11.35;;;7.30;;
41661;SDS011;27351;45.992;12.666;2023-03-23T13:28:21;13.70;;;9.27;;
41661;SDS011;27351;45.992;12.666;2023-03-23T13:31:03;14.82;;;10.10;;
41661;SDS011;27351;45.992;12.666;2023-03-23T13:33:30;15.13;;;10.65;;
41661;SDS011;27351;45.992;12.666;2023-03-23T13:35:57;14.18;;;8.98;;
41661;SDS011;27351;45.992;12.666;2023-03-23T13:38:30;13.27;;;8.93;;
41661;SDS011;27351;45.992;12.666;2023-03-23T13:40:56;17.20;;;11.20;;
41661;SDS011;27351;45.992;12.666;2023-03-23T13:43:27;15.77;;;10.02;;
41661;SDS011;27351;45.992;12.666;2023-03-23T13:45:53;14.95;;;10.13;;
41661;SDS011;27351;45.992;12.666;2023-03-23T13:48:22;14.55;;;10.05;;
41661;SDS011;27351;45.992;12.666;2023-03-23T13:50:50;15.32;;;10.65;;
41661;SDS011;27351;45.992;12.666;2023-03-23T13:53:27;19.00;;;11.52;;
41661;SDS011;27351;45.992;12.666;2023-03-23T13:56:04;16.42;;;11.57;;
41661;SDS011;27351;45.992;12.666;2023-03-23T13:58:31;18.65;;;13.05;;
41661;SDS011;27351;45.992;12.666;2023-03-23T14:01:10;15.37;;;9.43;;
41661;SDS011;27351;45.992;12.666;2023-03-23T14:03:38;20.73;;;13.45;;
41661;SDS011;27351;45.992;12.666;2023-03-23T14:06:11;18.63;;;13.55;;
41661;SDS011;27351;45.992;12.666;2023-03-23T14:08:56;18.27;;;11.63;;
41661;SDS011;27351;45.992;12.666;2023-03-23T14:11:30;18.67;;;11.33;;
41661;SDS011;27351;45.992;12.666;2023-03-23T14:14:01;16.90;;;11.60;;
41661;SDS011;27351;45.992;12.666;2023-03-23T14:18:57;19.67;;;13.15;;
41661;SDS011;27351;45.992;12.666;2023-03-23T14:21:40;23.08;;;15.18;;
41661;SDS011;27351;45.992;12.666;2023-03-23T14:24:15;19.88;;;11.65;;
41661;SDS011;27351;45.992;12.666;2023-03-23T14:26:41;17.30;;;11.30;;
41661;SDS011;27351;45.992;12.666;2023-03-23T14:29:10;20.17;;;12.75;;
41661;SDS011;27351;45.992;12.666;2023-03-23T14:31:35;18.08;;;12.60;;
41661;SDS011;27351;45.992;12.666;2023-03-23T14:34:03;18.08;;;11.98;;
41661;SDS011;27351;45.992;12.666;2023-03-23T14:36:30;18.50;;;11.00;;
41661;SDS011;27351;45.992;12.666;2023-03-23T14:39:43;19.65;;;12.00;;
41661;SDS011;27351;45.992;12.666;2023-03-23T14:41:42;18.60;;;11.50;;
41661;SDS011;27351;45.992;12.666;2023-03-23T14:44:10;17.90;;;11.82;;
41661;SDS011;27351;45.992;12.666;2023-03-23T14:46:38;20.40;;;12.70;;
41661;SDS011;27351;45.992;12.666;2023-03-23T14:49:04;19.73;;;13.60;;
41661;SDS011;27351;45.992;12.666;2023-03-23T14:51:30;22.33;;;14.70;;
41661;SDS011;27351;45.992;12.666;2023-03-23T14:53:57;20.43;;;13.70;;
41661;SDS011;27351;45.992;12.666;2023-03-23T14:56:34;19.02;;;12.63;;
41661;SDS011;27351;45.992;12.666;2023-03-23T14:59:04;22.50;;;12.32;;
41661;SDS011;27351;45.992;12.666;2023-03-23T15:01:30;21.10;;;12.23;;
41661;SDS011;27351;45.992;12.666;2023-03-23T15:03:58;19.83;;;11.13;;
41661;SDS011;27351;45.992;12.666;2023-03-23T15:06:26;17.58;;;11.52;;
41661;SDS011;27351;45.992;12.666;2023-03-23T15:08:53;18.50;;;12.53;;
41661;SDS011;27351;45.992;12.666;2023-03-23T15:11:35;20.55;;;13.23;;
41661;SDS011;27351;45.992;12.666;2023-03-23T15:14:07;21.45;;;14.02;;
41661;SDS011;27351;45.992;12.666;2023-03-23T15:16:34;21.92;;;13.90;;
41661;SDS011;27351;45.992;12.666;2023-03-23T15:19:10;20.17;;;13.85;;
41661;SDS011;27351;45.992;12.666;2023-03-23T15:21:46;20.67;;;14.60;;
41661;SDS011;27351;45.992;12.666;2023-03-23T15:24:20;24.30;;;14.45;;
41661;SDS011;27351;45.992;12.666;2023-03-23T15:26:46;22.30;;;14.90;;
41661;SDS011;27351;45.992;12.666;2023-03-23T15:29:16;22.77;;;16.33;;
41661;SDS011;27351;45.992;12.666;2023-03-23T15:31:43;25.20;;;15.40;;
41661;SDS011;27351;45.992;12.666;2023-03-23T15:34:11;21.58;;;14.52;;
41661;SDS011;27351;45.992;12.666;2023-03-23T15:36:38;21.33;;;15.48;;
41661;SDS011;27351;45.992;12.666;2023-03-23T15:39:03;22.80;;;14.97;;
41661;SDS011;27351;45.992;12.666;2023-03-23T15:41:31;22.17;;;14.60;;
41661;SDS011;27351;45.992;12.666;2023-03-23T15:44:10;21.47;;;14.20;;
41661;SDS011;27351;45.992;12.666;2023-03-23T15:46:47;20.63;;;13.38;;
41661;SDS011;27351;45.992;12.666;2023-03-23T15:49:12;20.50;;;13.70;;
41661;SDS011;27351;45.992;12.666;2023-03-23T15:51:41;18.90;;;12.88;;
41661;SDS011;27351;45.992;12.666;2023-03-23T15:54:08;18.67;;;13.63;;
41661;SDS011;27351;45.992;12.666;2023-03-23T15:56:35;22.48;;;14.05;;
41661;SDS011;27351;45.992;12.666;2023-03-23T15:59:00;18.83;;;12.93;;
41661;SDS011;27351;45.992;12.666;2023-03-23T16:01:27;18.17;;;13.13;;
41661;SDS011;27351;45.992;12.666;2023-03-23T16:03:55;18.02;;;13.52;;
41661;SDS011;27351;45.992;12.666;2023-03-23T16:06:22;17.75;;;10.15;;
41661;SDS011;27351;45.992;12.666;2023-03-23T16:08:49;14.20;;;7.47;;
41661;SDS011;27351;45.992;12.666;2023-03-23T16:11:15;11.63;;;6.27;;
41661;SDS011;27351;45.992;12.666;2023-03-23T16:13:41;11.38;;;5.70;;
41661;SDS011;27351;45.992;12.666;2023-03-23T16:16:29;11.93;;;5.40;;
41661;SDS011;27351;45.992;12.666;2023-03-23T16:18:53;12.65;;;5.55;;
41661;SDS011;27351;45.992;12.666;2023-03-23T16:21:18;10.80;;;5.73;;
41661;SDS011;27351;45.992;12.666;2023-03-23T16:23:44;12.55;;;5.38;;
41661;SDS011;27351;45.992;12.666;2023-03-23T16:26:11;13.02;;;5.80;;
41661;SDS011;27351;45.992;12.666;2023-03-23T16:28:37;10.80;;;4.95;;
41661;SDS011;27351;45.992;12.666;2023-03-23T16:31:02;11.35;;;5.25;;